Time;durP1;ratioP1;P1;durP2;ratioP2;P2;SDS_P1;SDS_P2;PMS_P1;PMS_P2;Temp;Humidity;BMP_temperature;BMP_pressure;BME280_temperature;BME280_humidity;BME280_pressure;Samples;Min_cycle;Max_cycle;Signal;HPM_P1;HPM_P2
2023/10/02 00:01:36;;;;;;;;;;;20.20;91.60;;;;;;4139750;28;19932;-55
2023/10/02 00:04:20;;;;;;;;;;;20.20;91.60;;;;;;4166797;28;19979;-56
2023/10/02 00:07:07;;;;;;;;;;;20.20;91.60;;;;;;4135752;28;19975;-55
2023/10/02 00:09:50;;;;;;;;;;;20.20;91.60;;;;;;4158836;28;19944;-56
2023/10/02 00:12:34;;;;;;;;;;;20.20;91.70;;;;;;4155392;28;20318;-49
2023/10/02 00:15:15;;;;;;;;;;;20.20;91.70;;;;;;4194131;28;20424;-56
2023/10/02 00:17:57;;;;;;;;;;;20.20;91.70;;;;;;4182749;28;19939;-54
2023/10/02 00:20:40;;;;;;;;;;;20.20;91.70;;;;;;4182565;28;19979;-54
2023/10/02 00:23:21;;;;;;;;;;;20.20;91.70;;;;;;4149424;28;19948;-55
2023/10/02 00:26:06;;;;;;;;;;;20.20;91.70;;;;;;4159687;28;20410;-56
2023/10/02 00:28:47;;;;;;;;;;;20.20;91.80;;;;;;4183042;28;19936;-55
2023/10/02 00:31:36;;;;;;;;;;;20.20;91.80;;;;;;4136237;28;20307;-55
2023/10/02 00:34:30;;;;;;;;;;;20.20;91.80;;;;;;4138061;28;19933;-56
2023/10/02 00:37:13;;;;;;;;;;;20.20;91.80;;;;;;4160871;28;20054;-54
2023/10/02 00:39:55;;;;;;;;;;;20.20;91.80;;;;;;4165651;28;20007;-56
2023/10/02 00:42:39;;;;;;;;;;;20.20;92.20;;;;;;4130474;28;20506;-55
2023/10/02 00:45:19;;;;;;;;;;;20.20;91.80;;;;;;4190525;28;19968;-53
2023/10/02 00:51:07;;;;;;;;;;;20.20;91.90;;;;;;4169897;28;19963;-54
2023/10/02 00:53:53;;;;;;;;;;;20.20;91.90;;;;;;4145383;28;20021;-54
2023/10/02 00:56:34;;;;;;;;;;;20.20;91.90;;;;;;4165714;28;19982;-56
2023/10/02 00:59:22;;;;;;;;;;;20.20;91.90;;;;;;4168036;28;20070;-55
2023/10/02 01:02:05;;;;;;;;;;;20.20;91.90;;;;;;4155779;28;20477;-55
2023/10/02 01:04:47;;;;;;;;;;;20.10;92.30;;;;;;4150201;28;19932;-57
2023/10/02 01:07:28;;;;;;;;;;;20.10;91.90;;;;;;4168528;28;20283;-55
2023/10/02 01:10:17;;;;;;;;;;;20.20;91.90;;;;;;4153094;28;19982;-56
2023/10/02 01:13:05;;;;;;;;;;;20.20;91.90;;;;;;4153611;28;19936;-54
2023/10/02 01:15:48;;;;;;;;;;;20.20;92.00;;;;;;4147469;28;19935;-41
2023/10/02 01:18:33;;;;;;;;;;;20.20;91.90;;;;;;4176795;28;20067;-42
2023/10/02 01:21:18;;;;;;;;;;;20.20;92.00;;;;;;4185413;28;20026;-41
2023/10/02 01:24:09;;;;;;;;;;;20.20;92.00;;;;;;4170302;28;20677;-42
2023/10/02 01:26:51;;;;;;;;;;;20.10;92.00;;;;;;4174577;28;19977;-42
2023/10/02 01:29:35;;;;;;;;;;;20.10;92.00;;;;;;4183607;28;19967;-42
2023/10/02 01:32:17;;;;;;;;;;;20.20;92.00;;;;;;4160978;28;19940;-56
2023/10/02 01:34:58;;;;;;;;;;;20.20;92.00;;;;;;4191120;28;20506;-55
2023/10/02 01:37:49;;;;;;;;;;;20.10;92.00;;;;;;4166629;28;20474;-55
2023/10/02 01:40:35;;;;;;;;;;;20.20;92.00;;;;;;4171107;28;19939;-48
2023/10/02 01:43:22;;;;;;;;;;;20.10;92.40;;;;;;4169275;28;20084;-55
2023/10/02 01:46:05;;;;;;;;;;;20.10;92.00;;;;;;4172387;28;19939;-56
2023/10/02 01:48:48;;;;;;;;;;;20.10;92.00;;;;;;4169431;28;20059;-55
2023/10/02 01:51:37;;;;;;;;;;;20.10;91.90;;;;;;4170697;28;19939;-42
2023/10/02 01:54:19;;;;;;;;;;;20.10;92.30;;;;;;4185434;28;19931;-41
2023/10/02 01:57:04;;;;;;;;;;;20.10;91.90;;;;;;4173302;28;19936;-43
2023/10/02 01:59:46;;;;;;;;;;;20.10;91.90;;;;;;4167660;28;19935;-42
2023/10/02 02:02:30;;;;;;;;;;;20.10;91.90;;;;;;4168950;28;20014;-42
2023/10/02 02:05:14;;;;;;;;;;;20.10;91.90;;;;;;4167999;28;19931;-41
2023/10/02 02:07:55;;;;;;;;;;;20.10;91.90;;;;;;4191089;28;20374;-41
2023/10/02 02:10:39;;;;;;;;;;;20.10;91.90;;;;;;4184300;28;19935;-41
2023/10/02 02:13:22;;;;;;;;;;;20.10;91.90;;;;;;4170446;28;19936;-41
2023/10/02 02:16:07;;;;;;;;;;;20.10;91.90;;;;;;4168194;28;20062;-41
2023/10/02 02:18:50;;;;;;;;;;;20.10;91.90;;;;;;4168024;28;19932;-43
2023/10/02 02:21:32;;;;;;;;;;;20.10;91.90;;;;;;4167708;28;19931;-42
2023/10/02 02:24:13;;;;;;;;;;;20.10;91.90;;;;;;4178736;28;20059;-42
2023/10/02 02:26:57;;;;;;;;;;;20.10;91.90;;;;;;4169397;28;19932;-43
2023/10/02 02:29:40;;;;;;;;;;;20.10;92.30;;;;;;4168754;28;19978;-42
2023/10/02 02:32:36;;;;;;;;;;;20.10;91.90;;;;;;4167375;28;19931;-41
2023/10/02 02:35:19;;;;;;;;;;;20.10;91.90;;;;;;4189527;28;20399;-42
2023/10/02 02:38:00;;;;;;;;;;;20.10;91.90;;;;;;4190185;28;19931;-41
2023/10/02 02:40:41;;;;;;;;;;;20.10;91.90;;;;;;4167381;28;19932;-42
2023/10/02 02:43:22;;;;;;;;;;;20.10;91.90;;;;;;4167002;28;19977;-41
2023/10/02 02:46:06;;;;;;;;;;;20.10;91.90;;;;;;4159072;28;20010;-42
2023/10/02 02:48:49;;;;;;;;;;;20.10;91.90;;;;;;4170786;28;19936;-41
2023/10/02 02:51:31;;;;;;;;;;;20.10;92.30;;;;;;4162703;28;20315;-41
2023/10/02 02:54:12;;;;;;;;;;;20.10;92.00;;;;;;4176927;28;19936;-41
2023/10/02 02:56:58;;;;;;;;;;;20.10;92.00;;;;;;4159384;28;19978;-41
2023/10/02 02:59:40;;;;;;;;;;;20.10;92.00;;;;;;4159952;28;19974;-41
2023/10/02 03:02:22;;;;;;;;;;;20.10;92.00;;;;;;4164852;28;20448;-41
2023/10/02 03:05:10;;;;;;;;;;;20.10;92.00;;;;;;4160302;28;19935;-41
2023/10/02 03:08:02;;;;;;;;;;;20.10;92.00;;;;;;4152759;28;20009;-41
2023/10/02 03:10:57;;;;;;;;;;;20.10;92.00;;;;;;4164958;28;19940;-46
2023/10/02 03:13:41;;;;;;;;;;;20.10;92.00;;;;;;4157617;28;20010;-41
2023/10/02 03:16:29;;;;;;;;;;;20.00;91.90;;;;;;4161302;28;19940;-41
2023/10/02 03:19:13;;;;;;;;;;;20.00;91.90;;;;;;4170961;28;20398;-41
2023/10/02 03:22:02;;;;;;;;;;;20.00;91.90;;;;;;4167044;28;20291;-41
2023/10/02 03:24:45;;;;;;;;;;;20.00;91.90;;;;;;4160525;28;20010;-41
2023/10/02 03:27:29;;;;;;;;;;;20.00;91.90;;;;;;4166522;28;20303;-40
2023/10/02 03:30:35;;;;;;;;;;;20.00;91.90;;;;;;4158310;28;19939;-41
2023/10/02 03:33:19;;;;;;;;;;;20.00;92.30;;;;;;4164101;28;19935;-41
2023/10/02 03:36:09;;;;;;;;;;;20.00;91.90;;;;;;4172626;28;19935;-41
2023/10/02 03:38:51;;;;;;;;;;;20.00;91.90;;;;;;4179773;28;19935;-41
2023/10/02 03:41:44;;;;;;;;;;;20.00;91.90;;;;;;4151822;28;20022;-40
2023/10/02 03:44:26;;;;;;;;;;;20.00;91.90;;;;;;4160065;28;19940;-42
2023/10/02 03:47:12;;;;;;;;;;;20.00;91.90;;;;;;4167200;28;19931;-41
2023/10/02 03:50:00;;;;;;;;;;;20.00;91.90;;;;;;4166014;28;19946;-41
2023/10/02 03:53:10;;;;;;;;;;;20.00;91.90;;;;;;4169329;28;19936;-42
2023/10/02 03:55:59;;;;;;;;;;;20.00;91.90;;;;;;4185393;28;20001;-56
2023/10/02 03:58:43;;;;;;;;;;;20.00;91.90;;;;;;4153282;28;20071;-54
2023/10/02 04:01:28;;;;;;;;;;;20.00;91.90;;;;;;4169976;28;20065;-55
2023/10/02 04:04:19;;;;;;;;;;;20.00;91.90;;;;;;4167107;28;20012;-56
2023/10/02 04:07:03;;;;;;;;;;;20.00;91.90;;;;;;4159813;28;20405;-56
2023/10/02 04:09:50;;;;;;;;;;;20.00;91.90;;;;;;4175492;28;19932;-57
2023/10/02 04:12:50;;;;;;;;;;;20.00;91.90;;;;;;4183017;28;19936;-57
2023/10/02 04:15:32;;;;;;;;;;;20.00;92.30;;;;;;4174565;28;20061;-56
2023/10/02 04:18:45;;;;;;;;;;;20.00;91.90;;;;;;4158999;28;20064;-55
2023/10/02 04:21:19;;;;;;;;;;;20.00;91.90;;;;;;4165404;28;19995;-57
2023/10/02 04:24:09;;;;;;;;;;;20.00;91.90;;;;;;4162162;28;19936;-41
2023/10/02 04:26:55;;;;;;;;;;;20.00;91.90;;;;;;4154251;28;19951;-41
2023/10/02 04:29:38;;;;;;;;;;;20.00;91.90;;;;;;4157874;28;19935;-41
2023/10/02 04:32:19;;;;;;;;;;;20.00;91.90;;;;;;4167826;28;19936;-41
2023/10/02 04:35:03;;;;;;;;;;;19.90;91.90;;;;;;4168813;28;19936;-42
2023/10/02 04:37:43;;;;;;;;;;;19.90;91.90;;;;;;4179995;28;19932;-41
2023/10/02 04:40:37;;;;;;;;;;;19.90;91.90;;;;;;4168924;28;20476;-41
2023/10/02 04:43:19;;;;;;;;;;;19.90;91.90;;;;;;4164641;28;20393;-40
2023/10/02 04:46:08;;;;;;;;;;;19.90;91.90;;;;;;4171432;28;19947;-43
2023/10/02 04:48:54;;;;;;;;;;;19.90;91.90;;;;;;4147743;28;19936;-41
2023/10/02 04:51:43;;;;;;;;;;;19.90;92.30;;;;;;4166657;28;19947;-41
2023/10/02 04:54:25;;;;;;;;;;;19.90;92.00;;;;;;4169519;28;19935;-42
2023/10/02 04:57:14;;;;;;;;;;;19.90;92.00;;;;;;4170131;28;19947;-42
2023/10/02 04:59:57;;;;;;;;;;;20.00;92.10;;;;;;4166619;28;19936;-51
2023/10/02 05:02:39;;;;;;;;;;;19.90;92.10;;;;;;4162035;28;19994;-49
2023/10/02 05:05:23;;;;;;;;;;;19.90;92.50;;;;;;4165213;28;20420;-53
2023/10/02 05:08:18;;;;;;;;;;;19.90;92.10;;;;;;4138375;28;19936;-41
2023/10/02 05:11:07;;;;;;;;;;;19.90;92.10;;;;;;4149298;28;19955;-42
2023/10/02 05:13:59;;;;;;;;;;;19.90;92.50;;;;;;4158186;28;19931;-41
2023/10/02 05:16:45;;;;;;;;;;;19.90;92.10;;;;;;4146395;28;19936;-40
2023/10/02 05:22:24;;;;;;;;;;;20.00;92.20;;;;;;4138003;28;19947;-40
2023/10/02 05:25:07;;;;;;;;;;;20.00;92.10;;;;;;4165891;28;20311;-41
2023/10/02 05:27:52;;;;;;;;;;;20.00;92.10;;;;;;4136729;28;19983;-41
2023/10/02 05:30:43;;;;;;;;;;;20.00;92.10;;;;;;4133505;28;20394;-54
2023/10/02 05:33:37;;;;;;;;;;;20.00;92.10;;;;;;4162136;28;20059;-54
2023/10/02 05:36:21;;;;;;;;;;;20.00;92.00;;;;;;4165614;28;19935;-52
2023/10/02 05:39:28;;;;;;;;;;;19.90;92.00;;;;;;4163376;28;19931;-51
2023/10/02 05:42:13;;;;;;;;;;;19.90;92.00;;;;;;4141798;28;19935;-51
2023/10/02 05:44:57;;;;;;;;;;;19.90;92.00;;;;;;4164678;28;19967;-52
2023/10/02 05:47:40;;;;;;;;;;;19.90;92.00;;;;;;4161642;28;19963;-51
2023/10/02 05:50:32;;;;;;;;;;;19.90;92.00;;;;;;4173083;28;19935;-54
2023/10/02 05:53:20;;;;;;;;;;;19.90;91.90;;;;;;4155965;28;19985;-51
2023/10/02 05:56:12;;;;;;;;;;;19.90;91.90;;;;;;4165149;28;19932;-51
2023/10/02 05:58:55;;;;;;;;;;;19.90;91.90;;;;;;4173093;28;19970;-54
2023/10/02 06:01:37;;;;;;;;;;;19.90;91.90;;;;;;4123684;28;19936;-54
2023/10/02 06:04:23;;;;;;;;;;;19.90;91.90;;;;;;4159048;28;19967;-49
2023/10/02 06:07:19;;;;;;;;;;;19.90;91.90;;;;;;4157944;28;19932;-50
2023/10/02 06:10:08;;;;;;;;;;;19.90;91.90;;;;;;4145141;28;19935;-52
2023/10/02 06:13:02;;;;;;;;;;;19.90;92.00;;;;;;4141433;28;19994;-50
2023/10/02 06:15:47;;;;;;;;;;;19.90;92.00;;;;;;4147848;28;19931;-42
2023/10/02 06:18:30;;;;;;;;;;;19.90;92.00;;;;;;4156954;28;19935;-42
2023/10/02 06:21:15;;;;;;;;;;;19.90;92.00;;;;;;4141994;28;20018;-41
2023/10/02 06:23:58;;;;;;;;;;;19.90;91.90;;;;;;4160095;28;19931;-41
2023/10/02 06:26:57;;;;;;;;;;;19.90;91.90;;;;;;4137048;28;19975;-52
2023/10/02 06:29:44;;;;;;;;;;;19.90;91.90;;;;;;4169651;28;20299;-52
2023/10/02 06:32:27;;;;;;;;;;;19.90;92.30;;;;;;4169819;28;20041;-51
2023/10/02 06:35:12;;;;;;;;;;;19.90;91.90;;;;;;4145382;28;20107;-52
2023/10/02 06:37:54;;;;;;;;;;;19.90;91.90;;;;;;4163848;28;19936;-50
2023/10/02 06:40:55;;;;;;;;;;;19.90;91.90;;;;;;4149576;28;19962;-49
2023/10/02 06:43:40;;;;;;;;;;;19.90;91.90;;;;;;4152819;28;20658;-54
2023/10/02 06:46:23;;;;;;;;;;;19.80;91.90;;;;;;4093642;28;20399;-52
2023/10/02 06:49:15;;;;;;;;;;;19.80;91.90;;;;;;4143753;28;19936;-50
2023/10/02 06:52:11;;;;;;;;;;;19.80;91.90;;;;;;4160185;28;19944;-51
2023/10/02 06:54:56;;;;;;;;;;;19.80;91.90;;;;;;4127740;28;19957;-51
2023/10/02 06:57:49;;;;;;;;;;;19.80;91.90;;;;;;4156698;28;19932;-42
2023/10/02 07:00:54;;;;;;;;;;;19.80;91.90;;;;;;4158735;28;19939;-43
2023/10/02 07:03:44;;;;;;;;;;;19.80;91.90;;;;;;4132463;28;20302;-42
2023/10/02 07:06:39;;;;;;;;;;;19.80;91.90;;;;;;4173204;28;19935;-42
2023/10/02 07:09:24;;;;;;;;;;;19.80;91.90;;;;;;4161433;28;19978;-42
2023/10/02 07:12:13;;;;;;;;;;;19.80;92.00;;;;;;4132579;28;19961;-42
2023/10/02 07:18:12;;;;;;;;;;;19.80;92.40;;;;;;4157890;28;19963;-42
2023/10/02 07:20:58;;;;;;;;;;;19.90;92.20;;;;;;4139038;28;20014;-42
2023/10/02 07:23:43;;;;;;;;;;;19.90;92.10;;;;;;4130664;28;20117;-42
2023/10/02 07:26:49;;;;;;;;;;;19.90;92.00;;;;;;4159354;28;20083;-42
2023/10/02 07:29:38;;;;;;;;;;;19.90;92.00;;;;;;4151813;28;20058;-42
2023/10/02 07:32:23;;;;;;;;;;;19.90;92.00;;;;;;4159026;28;20299;-42
2023/10/02 07:35:21;;;;;;;;;;;19.90;92.10;;;;;;4149454;28;19931;-41
2023/10/02 07:38:08;;;;;;;;;;;20.00;92.30;;;;;;4138414;28;19936;-43
2023/10/02 07:40:51;;;;;;;;;;;20.00;92.30;;;;;;4155285;28;19931;-42
2023/10/02 07:43:34;;;;;;;;;;;20.00;92.40;;;;;;4155237;28;19939;-42
2023/10/02 07:46:21;;;;;;;;;;;20.00;92.50;;;;;;4125483;28;19932;-44
2023/10/02 07:49:16;;;;;;;;;;;20.00;92.60;;;;;;4178094;28;19966;-51
2023/10/02 07:52:01;;;;;;;;;;;20.00;92.70;;;;;;4145985;28;19931;-51
2023/10/02 07:54:49;;;;;;;;;;;20.00;92.70;;;;;;4159334;28;20059;-50
2023/10/02 07:57:32;;;;;;;;;;;20.10;92.80;;;;;;4130110;28;20322;-51
2023/10/02 08:06:23;;;;;;;;;;;20.10;92.70;;;;;;4134451;28;20395;-51
2023/10/02 08:12:04;;;;;;;;;;;20.20;92.70;;;;;;4160553;28;19948;-50
2023/10/02 08:14:48;;;;;;;;;;;20.20;92.70;;;;;;4131119;28;19932;-49
2023/10/02 08:20:32;;;;;;;;;;;20.20;92.60;;;;;;4171006;28;19977;-50
2023/10/02 08:23:27;;;;;;;;;;;20.20;92.60;;;;;;4149155;28;19938;-50
2023/10/02 08:26:09;;;;;;;;;;;20.30;92.70;;;;;;4124651;28;20050;-53
2023/10/02 08:29:08;;;;;;;;;;;20.20;92.70;;;;;;4140611;28;20014;-49
2023/10/02 08:31:56;;;;;;;;;;;20.20;92.70;;;;;;4163526;28;19936;-50
2023/10/02 08:34:37;;;;;;;;;;;20.30;92.80;;;;;;4159772;28;19987;-52
2023/10/02 08:37:25;;;;;;;;;;;20.30;93.20;;;;;;4183889;28;19958;-50
2023/10/02 08:40:14;;;;;;;;;;;20.30;92.90;;;;;;4165726;28;20387;-52
2023/10/02 08:42:56;;;;;;;;;;;20.30;92.90;;;;;;4172250;28;20058;-50
2023/10/02 08:45:44;;;;;;;;;;;20.30;93.30;;;;;;4144641;28;19979;-51
2023/10/02 08:48:31;;;;;;;;;;;20.30;92.90;;;;;;4155128;28;20295;-42
2023/10/02 08:51:28;;;;;;;;;;;20.30;93.30;;;;;;4162542;28;19936;-50
2023/10/02 08:54:11;;;;;;;;;;;20.30;92.90;;;;;;4157393;28;19931;-53
2023/10/02 08:57:05;;;;;;;;;;;20.30;92.90;;;;;;4160671;28;20291;-49
2023/10/02 08:59:55;;;;;;;;;;;20.40;93.00;;;;;;4160685;28;19935;-53
2023/10/02 09:02:40;;;;;;;;;;;20.40;93.00;;;;;;4147272;28;19936;-52
2023/10/02 09:05:36;;;;;;;;;;;20.50;93.00;;;;;;4146130;28;19936;-50
2023/10/02 09:08:21;;;;;;;;;;;20.50;93.00;;;;;;4155862;28;20009;-53
2023/10/02 09:11:06;;;;;;;;;;;20.50;93.00;;;;;;4152285;28;19935;-50
2023/10/02 09:14:12;;;;;;;;;;;20.50;93.00;;;;;;4162426;28;19935;-52
2023/10/02 09:17:12;;;;;;;;;;;20.50;93.00;;;;;;4160050;28;19936;-51
2023/10/02 09:19:55;;;;;;;;;;;20.50;93.20;;;;;;4170924;28;19986;-50
2023/10/02 09:22:38;;;;;;;;;;;20.60;93.30;;;;;;4155617;28;19932;-42
2023/10/02 09:25:26;;;;;;;;;;;20.60;93.30;;;;;;4167993;28;20464;-42
2023/10/02 09:28:14;;;;;;;;;;;20.70;93.30;;;;;;4169990;28;19939;-41
2023/10/02 09:31:14;;;;;;;;;;;20.80;93.30;;;;;;4157917;28;20062;-41
2023/10/02 09:34:10;;;;;;;;;;;20.80;93.30;;;;;;4156350;28;19974;-40
2023/10/02 09:37:11;;;;;;;;;;;20.90;93.20;;;;;;4151316;28;19933;-53
2023/10/02 09:39:55;;;;;;;;;;;21.00;93.10;;;;;;4161396;28;19936;-53
2023/10/02 09:42:39;;;;;;;;;;;21.00;93.00;;;;;;4164887;28;20460;-41
2023/10/02 09:45:31;;;;;;;;;;;21.10;92.90;;;;;;4183967;28;19941;-42
2023/10/02 09:51:14;;;;;;;;;;;21.10;92.80;;;;;;4185131;28;20055;-42
2023/10/02 09:54:05;;;;;;;;;;;21.20;92.70;;;;;;4167242;28;19991;-53
2023/10/02 09:57:04;;;;;;;;;;;21.20;92.50;;;;;;4158566;28;19932;-51
2023/10/02 09:59:51;;;;;;;;;;;21.30;92.50;;;;;;4166159;28;19935;-53
2023/10/02 10:02:49;;;;;;;;;;;21.30;92.40;;;;;;4156385;28;20306;-41
2023/10/02 10:05:45;;;;;;;;;;;21.20;92.30;;;;;;4154895;28;20291;-43
2023/10/02 10:08:33;;;;;;;;;;;21.20;92.30;;;;;;4188893;28;19932;-41
2023/10/02 10:11:18;;;;;;;;;;;21.20;92.30;;;;;;4148535;28;19932;-43
2023/10/02 10:14:35;;;;;;;;;;;21.20;92.70;;;;;;4149394;28;19932;-43
2023/10/02 10:17:49;;;;;;;;;;;21.30;92.30;;;;;;4138310;28;20280;-43
2023/10/02 10:20:35;;;;;;;;;;;21.30;92.30;;;;;;4158710;28;19974;-49
2023/10/02 10:23:31;;;;;;;;;;;21.30;92.20;;;;;;4180343;28;19939;-52
2023/10/02 10:26:38;;;;;;;;;;;21.30;92.10;;;;;;4154343;28;19932;-52
2023/10/02 10:29:37;;;;;;;;;;;21.30;92.10;;;;;;4166731;28;19978;-52
2023/10/02 10:32:19;;;;;;;;;;;21.30;92.10;;;;;;4175923;28;19936;-51
2023/10/02 10:35:14;;;;;;;;;;;21.30;92.50;;;;;;4153403;28;20017;-49
2023/10/02 10:37:57;;;;;;;;;;;21.30;92.10;;;;;;4177011;28;19935;-50
2023/10/02 10:40:43;;;;;;;;;;;21.40;92.10;;;;;;4165495;28;19931;-51
2023/10/02 10:43:26;;;;;;;;;;;21.40;92.40;;;;;;4167837;28;19935;-51
2023/10/02 10:46:12;;;;;;;;;;;21.40;92.00;;;;;;4160326;28;19947;-42
2023/10/02 10:48:59;;;;;;;;;;;21.40;92.30;;;;;;4165212;28;19959;-43
2023/10/02 10:51:41;;;;;;;;;;;21.40;91.90;;;;;;4150964;28;20403;-41
2023/10/02 10:54:26;;;;;;;;;;;21.50;92.00;;;;;;4167303;28;20314;-42
2023/10/02 10:57:22;;;;;;;;;;;21.50;92.00;;;;;;4167669;28;20067;-43
2023/10/02 11:00:23;;;;;;;;;;;21.50;92.10;;;;;;4137482;28;20019;-42
2023/10/02 11:03:14;;;;;;;;;;;21.50;92.10;;;;;;4162833;28;20399;-43
2023/10/02 11:06:01;;;;;;;;;;;21.60;92.30;;;;;;4168609;28;20280;-42
2023/10/02 11:08:44;;;;;;;;;;;21.60;92.30;;;;;;4158475;28;19948;-43
2023/10/02 11:11:30;;;;;;;;;;;21.60;92.40;;;;;;4162195;28;19971;-42
2023/10/02 11:14:20;;;;;;;;;;;21.60;92.40;;;;;;4152865;28;19932;-42
2023/10/02 11:17:04;;;;;;;;;;;21.60;92.50;;;;;;4155827;28;20640;-43
2023/10/02 11:19:46;;;;;;;;;;;21.70;92.60;;;;;;4149915;28;19947;-42
2023/10/02 11:22:27;;;;;;;;;;;21.60;92.90;;;;;;4165734;28;20358;-42
2023/10/02 11:25:18;;;;;;;;;;;21.70;92.60;;;;;;4167288;28;20003;-43
2023/10/02 11:28:01;;;;;;;;;;;21.70;92.60;;;;;;4167847;28;20060;-45
2023/10/02 11:30:49;;;;;;;;;;;21.70;92.50;;;;;;4167503;28;19936;-42
2023/10/02 11:33:30;;;;;;;;;;;21.80;92.50;;;;;;4163993;28;19935;-42
2023/10/02 11:36:11;;;;;;;;;;;21.80;92.50;;;;;;4162748;28;19951;-42
2023/10/02 11:38:54;;;;;;;;;;;21.80;92.50;;;;;;4172778;28;19931;-42
2023/10/02 11:41:36;;;;;;;;;;;21.80;92.40;;;;;;4158092;28;19955;-42
2023/10/02 11:44:19;;;;;;;;;;;21.80;92.30;;;;;;4180851;28;19951;-42
2023/10/02 11:47:00;;;;;;;;;;;21.90;92.30;;;;;;4167249;28;20287;-45
2023/10/02 11:49:42;;;;;;;;;;;21.90;92.30;;;;;;4166991;28;19932;-43
2023/10/02 11:52:26;;;;;;;;;;;21.90;92.30;;;;;;4165227;28;24580;-42
2023/10/02 11:55:07;;;;;;;;;;;21.90;92.20;;;;;;4150274;28;19932;-41
2023/10/02 11:57:53;;;;;;;;;;;22.00;92.20;;;;;;4162556;28;19932;-42
2023/10/02 12:00:38;;;;;;;;;;;22.00;92.20;;;;;;4122390;28;19932;-43
2023/10/02 12:03:25;;;;;;;;;;;22.00;92.20;;;;;;4173192;28;20290;-41
2023/10/02 12:06:11;;;;;;;;;;;22.00;92.20;;;;;;4163481;28;19977;-41
2023/10/02 12:08:56;;;;;;;;;;;22.00;92.20;;;;;;4164933;28;19936;-41
2023/10/02 12:11:37;;;;;;;;;;;22.00;92.20;;;;;;4163212;28;20426;-42
2023/10/02 12:14:18;;;;;;;;;;;22.10;92.20;;;;;;4164687;28;19931;-42
2023/10/02 12:17:01;;;;;;;;;;;22.10;92.20;;;;;;4124446;28;19980;-42
2023/10/02 12:19:44;;;;;;;;;;;22.10;92.60;;;;;;4148725;28;19936;-43
2023/10/02 12:22:26;;;;;;;;;;;22.20;92.20;;;;;;4153918;28;20699;-43
2023/10/02 12:25:09;;;;;;;;;;;22.10;92.20;;;;;;4166450;28;19935;-43
2023/10/02 12:27:52;;;;;;;;;;;22.20;92.20;;;;;;4165231;28;19936;-44
2023/10/02 12:30:34;;;;;;;;;;;22.20;92.20;;;;;;4165514;28;19936;-42
2023/10/02 12:33:17;;;;;;;;;;;22.20;92.10;;;;;;4166608;28;19963;-43
2023/10/02 12:35:58;;;;;;;;;;;22.20;92.00;;;;;;4167574;28;19959;-42
2023/10/02 12:38:41;;;;;;;;;;;22.20;92.00;;;;;;4180474;28;19974;-56
2023/10/02 12:41:22;;;;;;;;;;;22.30;91.90;;;;;;4183852;28;20279;-53
2023/10/02 12:44:03;;;;;;;;;;;22.30;91.90;;;;;;4161687;28;20299;-55
2023/10/02 12:46:46;;;;;;;;;;;22.30;91.90;;;;;;4168193;28;20394;-55
2023/10/02 12:49:29;;;;;;;;;;;22.30;91.90;;;;;;4166615;28;20488;-54
2023/10/02 12:52:11;;;;;;;;;;;22.30;91.90;;;;;;4168672;28;20037;-52
2023/10/02 12:54:52;;;;;;;;;;;22.30;91.80;;;;;;4166041;28;20009;-53
2023/10/02 12:57:37;;;;;;;;;;;22.30;91.80;;;;;;4164193;28;19936;-54
2023/10/02 13:00:21;;;;;;;;;;;22.30;91.80;;;;;;4170980;28;19931;-54
2023/10/02 13:03:02;;;;;;;;;;;22.30;91.80;;;;;;4170240;28;19967;-54
2023/10/02 13:05:44;;;;;;;;;;;22.30;91.80;;;;;;4181615;28;20067;-55
2023/10/02 13:08:26;;;;;;;;;;;22.30;91.80;;;;;;4161162;28;19931;-53
2023/10/02 13:11:12;;;;;;;;;;;22.30;91.80;;;;;;4168878;28;20374;-42
2023/10/02 13:13:53;;;;;;;;;;;22.30;92.20;;;;;;4169672;28;19936;-43
2023/10/02 13:16:41;;;;;;;;;;;22.30;91.80;;;;;;4161091;28;19931;-42
2023/10/02 13:19:22;;;;;;;;;;;22.30;91.80;;;;;;4167418;28;20054;-41
2023/10/02 13:22:04;;;;;;;;;;;22.30;91.80;;;;;;4176467;28;19932;-41
2023/10/02 13:24:46;;;;;;;;;;;22.30;91.80;;;;;;4171497;28;20028;-42
2023/10/02 13:27:27;;;;;;;;;;;22.30;91.80;;;;;;4171301;28;19951;-42
2023/10/02 13:30:11;;;;;;;;;;;22.30;91.80;;;;;;4174974;28;19936;-42
2023/10/02 13:32:52;;;;;;;;;;;22.30;92.20;;;;;;4170842;28;19935;-42
2023/10/02 13:35:36;;;;;;;;;;;22.30;91.80;;;;;;4170803;28;20044;-42
2023/10/02 13:38:19;;;;;;;;;;;22.30;91.80;;;;;;4166248;28;19936;-57
2023/10/02 13:41:06;;;;;;;;;;;22.30;91.80;;;;;;4169521;28;20021;-42
2023/10/02 13:43:48;;;;;;;;;;;22.30;91.80;;;;;;4167604;28;19992;-42
2023/10/02 13:46:29;;;;;;;;;;;22.30;91.80;;;;;;4170312;28;19931;-42
2023/10/02 13:49:10;;;;;;;;;;;22.30;91.90;;;;;;4153158;28;19932;-44
2023/10/02 13:51:52;;;;;;;;;;;22.30;92.20;;;;;;4164640;28;20288;-43
2023/10/02 13:54:34;;;;;;;;;;;22.30;91.90;;;;;;4165270;28;19984;-43
2023/10/02 13:57:15;;;;;;;;;;;22.40;91.90;;;;;;4156437;28;20395;-43
2023/10/02 13:59:56;;;;;;;;;;;22.40;91.90;;;;;;4152253;28;19982;-43
2023/10/02 14:02:38;;;;;;;;;;;22.40;91.80;;;;;;4152643;28;20287;-42
2023/10/02 14:05:24;;;;;;;;;;;22.40;91.70;;;;;;4141317;28;19978;-42
2023/10/02 14:08:06;;;;;;;;;;;22.40;91.70;;;;;;4166928;28;19936;-43
2023/10/02 14:10:48;;;;;;;;;;;22.40;91.60;;;;;;4158906;28;20296;-43
2023/10/02 14:13:29;;;;;;;;;;;22.40;91.60;;;;;;4155151;28;20012;-43
2023/10/02 14:16:10;;;;;;;;;;;22.40;91.60;;;;;;4168772;28;19951;-43
2023/10/02 14:18:53;;;;;;;;;;;22.40;91.60;;;;;;4137746;28;19936;-42
2023/10/02 14:21:35;;;;;;;;;;;22.50;91.50;;;;;;4138772;28;19932;-43
2023/10/02 14:24:17;;;;;;;;;;;22.50;91.50;;;;;;4162799;28;20029;-56
2023/10/02 14:26:59;;;;;;;;;;;22.50;91.50;;;;;;4184516;28;19950;-57
2023/10/02 14:29:40;;;;;;;;;;;22.50;91.50;;;;;;4186704;28;20012;-54
2023/10/02 14:32:23;;;;;;;;;;;22.50;91.50;;;;;;4169596;28;20017;-57
2023/10/02 14:35:06;;;;;;;;;;;22.50;91.40;;;;;;4161580;28;20048;-56
2023/10/02 14:37:48;;;;;;;;;;;22.50;91.40;;;;;;4164871;28;19932;-55
2023/10/02 14:40:30;;;;;;;;;;;22.50;91.40;;;;;;4152089;28;19935;-55
2023/10/02 14:43:13;;;;;;;;;;;22.50;91.40;;;;;;4142542;28;19951;-57
2023/10/02 14:45:57;;;;;;;;;;;22.50;91.40;;;;;;4178176;28;19935;-60
2023/10/02 14:48:40;;;;;;;;;;;22.50;91.40;;;;;;4192116;28;19936;-57
2023/10/02 14:51:27;;;;;;;;;;;22.50;91.80;;;;;;4169617;28;19932;-60
2023/10/02 14:54:08;;;;;;;;;;;22.50;91.40;;;;;;4170119;28;19935;-59
2023/10/02 14:56:49;;;;;;;;;;;22.50;91.30;;;;;;4166547;28;19936;-60
2023/10/02 14:59:33;;;;;;;;;;;22.50;91.30;;;;;;4167706;28;20013;-59
2023/10/02 15:02:14;;;;;;;;;;;22.50;91.40;;;;;;4164430;28;19968;-47
2023/10/02 15:04:56;;;;;;;;;;;22.50;91.40;;;;;;4169148;28;19959;-47
2023/10/02 15:07:37;;;;;;;;;;;22.50;91.40;;;;;;4166868;28;20395;-57
2023/10/02 15:10:19;;;;;;;;;;;22.50;91.40;;;;;;4169347;28;20398;-58
2023/10/02 15:13:01;;;;;;;;;;;22.40;91.40;;;;;;4153264;28;19986;-59
2023/10/02 15:15:43;;;;;;;;;;;22.40;91.80;;;;;;4152808;28;20311;-59
2023/10/02 15:18:27;;;;;;;;;;;22.40;91.50;;;;;;4163874;28;19936;-58
2023/10/02 15:21:08;;;;;;;;;;;22.40;91.40;;;;;;4175507;28;20006;-46
2023/10/02 15:23:50;;;;;;;;;;;22.40;91.40;;;;;;4163226;28;19936;-46
2023/10/02 15:26:32;;;;;;;;;;;22.40;91.50;;;;;;4162837;28;19935;-47
2023/10/02 15:29:13;;;;;;;;;;;22.40;91.50;;;;;;4166766;28;20010;-47
2023/10/02 15:31:58;;;;;;;;;;;22.40;91.50;;;;;;4167381;28;20018;-46
2023/10/02 15:34:42;;;;;;;;;;;22.30;91.50;;;;;;4177553;28;19943;-45
2023/10/02 15:37:24;;;;;;;;;;;22.30;91.50;;;;;;4194680;28;20397;-45
2023/10/02 15:40:20;;;;;;;;;;;22.30;91.50;;;;;;4176198;28;20324;-45
2023/10/02 15:43:14;;;;;;;;;;;22.30;91.90;;;;;;4165257;28;19935;-45
2023/10/02 15:45:58;;;;;;;;;;;22.30;91.90;;;;;;4186971;28;20066;-45
2023/10/02 15:48:40;;;;;;;;;;;22.30;91.50;;;;;;4158408;28;20126;-46
2023/10/02 15:51:23;;;;;;;;;;;22.30;91.50;;;;;;4183078;28;19935;-46
2023/10/02 15:54:06;;;;;;;;;;;22.30;91.50;;;;;;4184258;28;19932;-45
2023/10/02 15:56:48;;;;;;;;;;;22.30;91.50;;;;;;4179243;28;20544;-46
2023/10/02 15:59:29;;;;;;;;;;;22.30;91.50;;;;;;4181456;28;19935;-45
2023/10/02 16:02:13;;;;;;;;;;;22.30;91.50;;;;;;4184786;28;20322;-47
2023/10/02 16:04:57;;;;;;;;;;;22.20;91.50;;;;;;4181654;28;19977;-45
2023/10/02 16:07:39;;;;;;;;;;;22.20;91.50;;;;;;4173490;28;19935;-57
2023/10/02 16:10:21;;;;;;;;;;;22.20;91.50;;;;;;4189127;28;20401;-55
2023/10/02 16:13:02;;;;;;;;;;;22.20;91.50;;;;;;4181979;28;19989;-53
2023/10/02 16:15:44;;;;;;;;;;;22.20;91.50;;;;;;4123839;28;20011;-56
2023/10/02 16:18:26;;;;;;;;;;;22.20;91.60;;;;;;4133954;28;19933;-56
2023/10/02 16:21:11;;;;;;;;;;;22.20;92.00;;;;;;4153942;28;19946;-55
2023/10/02 16:23:53;;;;;;;;;;;22.20;91.70;;;;;;4164113;28;20401;-56
2023/10/02 16:26:35;;;;;;;;;;;22.20;92.20;;;;;;4133276;28;19967;-57
2023/10/02 16:29:16;;;;;;;;;;;22.10;91.80;;;;;;4137464;28;20973;-47